Terminal Aerodrome Forecast
Issued by NWS

Home | Current Version | Previous Version | Text Only | Print | Product List | Glossary Off
Versions: 1 2 3 4 5 6 7 8 9 10 11 12 13 14 15 16 17 18 19 20 21 22 23 24 25 26 27 28 29 30 31 32 33

000
FTUS43 KABR 040851 AAA
TAFATY
TAF AMD
KATY 040851Z 0409/0506 19012KT 5SM BR OVC005
     FM041000 20011KT P6SM BKN070
     FM041400 26011KT P6SM BKN080
     FM041600 27014KT P6SM SCT150
     FM050000 19009KT P6SM SCT150=

USA.gov is the U.S. government's official web portal to all federal, state and local government web resources and services.